sensor_id;sensor_type;location;lat;lon;timestamp;P1;durP1;ratioP1;P2;durP2;ratioP2
55065;SDS011;40964;42.114;24.220;2023-09-30T00:00:14;5.15;;;3.20;;
55065;SDS011;40964;42.114;24.220;2023-09-30T00:02:40;6.35;;;3.70;;
55065;SDS011;40964;42.114;24.220;2023-09-30T00:05:06;17.60;;;3.60;;
55065;SDS011;40964;42.114;24.220;2023-09-30T00:07:32;7.88;;;3.47;;
55065;SDS011;40964;42.114;24.220;2023-09-30T00:09:58;5.95;;;3.55;;
55065;SDS011;40964;42.114;24.220;2023-09-30T00:12:24;8.25;;;3.25;;
55065;SDS011;40964;42.114;24.220;2023-09-30T00:14:49;6.78;;;3.92;;
55065;SDS011;40964;42.114;24.220;2023-09-30T00:17:15;7.07;;;3.60;;
55065;SDS011;40964;42.114;24.220;2023-09-30T00:19:40;16.88;;;3.60;;
55065;SDS011;40964;42.114;24.220;2023-09-30T00:22:06;9.25;;;3.72;;
55065;SDS011;40964;42.114;24.220;2023-09-30T00:24:31;5.88;;;3.20;;
55065;SDS011;40964;42.114;24.220;2023-09-30T00:26:57;7.57;;;3.65;;
55065;SDS011;40964;42.114;24.220;2023-09-30T00:29:22;6.28;;;3.53;;
55065;SDS011;40964;42.114;24.220;2023-09-30T00:31:48;6.13;;;3.67;;
55065;SDS011;40964;42.114;24.220;2023-09-30T00:34:13;8.38;;;4.05;;
55065;SDS011;40964;42.114;24.220;2023-09-30T00:36:39;5.85;;;3.45;;
55065;SDS011;40964;42.114;24.220;2023-09-30T00:39:06;7.63;;;3.50;;
55065;SDS011;40964;42.114;24.220;2023-09-30T00:41:32;12.38;;;4.38;;
55065;SDS011;40964;42.114;24.220;2023-09-30T00:43:58;8.85;;;3.60;;
55065;SDS011;40964;42.114;24.220;2023-09-30T00:46:33;10.93;;;4.18;;
55065;SDS011;40964;42.114;24.220;2023-09-30T00:49:02;10.88;;;3.75;;
55065;SDS011;40964;42.114;24.220;2023-09-30T00:51:28;4.85;;;3.53;;
55065;SDS011;40964;42.114;24.220;2023-09-30T00:53:56;7.28;;;3.75;;
55065;SDS011;40964;42.114;24.220;2023-09-30T00:56:25;7.03;;;3.55;;
55065;SDS011;40964;42.114;24.220;2023-09-30T00:58:53;4.47;;;3.20;;
55065;SDS011;40964;42.114;24.220;2023-09-30T01:01:22;12.77;;;4.30;;
55065;SDS011;40964;42.114;24.220;2023-09-30T01:03:48;7.63;;;3.58;;
55065;SDS011;40964;42.114;24.220;2023-09-30T01:06:14;7.35;;;3.33;;
55065;SDS011;40964;42.114;24.220;2023-09-30T01:08:40;5.85;;;3.53;;
55065;SDS011;40964;42.114;24.220;2023-09-30T01:11:06;6.75;;;3.88;;
55065;SDS011;40964;42.114;24.220;2023-09-30T01:13:32;10.75;;;3.85;;
55065;SDS011;40964;42.114;24.220;2023-09-30T01:18:38;6.70;;;3.72;;
55065;SDS011;40964;42.114;24.220;2023-09-30T01:21:05;7.38;;;3.72;;
55065;SDS011;40964;42.114;24.220;2023-09-30T01:23:32;4.93;;;3.53;;
55065;SDS011;40964;42.114;24.220;2023-09-30T01:26:01;7.68;;;3.95;;
55065;SDS011;40964;42.114;24.220;2023-09-30T01:30:57;12.45;;;3.78;;
55065;SDS011;40964;42.114;24.220;2023-09-30T01:33:23;11.23;;;4.20;;
55065;SDS011;40964;42.114;24.220;2023-09-30T01:35:48;7.53;;;3.33;;
55065;SDS011;40964;42.114;24.220;2023-09-30T01:38:14;5.55;;;3.55;;
55065;SDS011;40964;42.114;24.220;2023-09-30T01:40:40;8.85;;;3.90;;
55065;SDS011;40964;42.114;24.220;2023-09-30T01:43:05;7.55;;;3.92;;
55065;SDS011;40964;42.114;24.220;2023-09-30T01:45:30;9.45;;;3.53;;
55065;SDS011;40964;42.114;24.220;2023-09-30T01:47:56;5.88;;;3.85;;
55065;SDS011;40964;42.114;24.220;2023-09-30T01:50:21;8.65;;;3.63;;
55065;SDS011;40964;42.114;24.220;2023-09-30T01:52:47;6.00;;;3.95;;
55065;SDS011;40964;42.114;24.220;2023-09-30T01:55:12;9.10;;;3.65;;
55065;SDS011;40964;42.114;24.220;2023-09-30T01:57:38;7.90;;;4.43;;
55065;SDS011;40964;42.114;24.220;2023-09-30T02:00:03;14.68;;;3.92;;
55065;SDS011;40964;42.114;24.220;2023-09-30T02:02:30;5.38;;;3.67;;
55065;SDS011;40964;42.114;24.220;2023-09-30T02:04:56;7.63;;;4.05;;
55065;SDS011;40964;42.114;24.220;2023-09-30T02:07:22;9.95;;;4.20;;
55065;SDS011;40964;42.114;24.220;2023-09-30T02:09:47;7.03;;;3.58;;
55065;SDS011;40964;42.114;24.220;2023-09-30T02:12:14;10.77;;;4.15;;
55065;SDS011;40964;42.114;24.220;2023-09-30T02:17:37;5.07;;;3.53;;
55065;SDS011;40964;42.114;24.220;2023-09-30T02:20:03;13.13;;;4.15;;
55065;SDS011;40964;42.114;24.220;2023-09-30T02:22:32;10.27;;;3.78;;
55065;SDS011;40964;42.114;24.220;2023-09-30T02:24:58;7.45;;;3.83;;
55065;SDS011;40964;42.114;24.220;2023-09-30T02:27:23;12.32;;;3.70;;
55065;SDS011;40964;42.114;24.220;2023-09-30T02:29:49;9.95;;;3.88;;
55065;SDS011;40964;42.114;24.220;2023-09-30T02:32:14;6.80;;;4.13;;
55065;SDS011;40964;42.114;24.220;2023-09-30T02:34:39;7.93;;;3.95;;
55065;SDS011;40964;42.114;24.220;2023-09-30T02:37:05;6.93;;;3.70;;
55065;SDS011;40964;42.114;24.220;2023-09-30T02:39:30;7.30;;;3.60;;
55065;SDS011;40964;42.114;24.220;2023-09-30T02:41:56;14.75;;;5.65;;
55065;SDS011;40964;42.114;24.220;2023-09-30T02:44:21;59.85;;;16.30;;
55065;SDS011;40964;42.114;24.220;2023-09-30T02:46:47;88.70;;;19.10;;
55065;SDS011;40964;42.114;24.220;2023-09-30T02:49:12;78.57;;;27.10;;
55065;SDS011;40964;42.114;24.220;2023-09-30T02:51:38;60.47;;;25.13;;
55065;SDS011;40964;42.114;24.220;2023-09-30T02:54:03;17.55;;;6.60;;
55065;SDS011;40964;42.114;24.220;2023-09-30T02:56:29;11.20;;;5.20;;
55065;SDS011;40964;42.114;24.220;2023-09-30T02:58:56;12.73;;;4.45;;
55065;SDS011;40964;42.114;24.220;2023-09-30T03:01:21;7.45;;;3.90;;
55065;SDS011;40964;42.114;24.220;2023-09-30T03:03:47;8.60;;;4.07;;
55065;SDS011;40964;42.114;24.220;2023-09-30T03:06:12;6.70;;;3.75;;
55065;SDS011;40964;42.114;24.220;2023-09-30T03:08:39;13.00;;;4.10;;
55065;SDS011;40964;42.114;24.220;2023-09-30T03:11:06;8.75;;;3.85;;
55065;SDS011;40964;42.114;24.220;2023-09-30T03:13:32;6.63;;;3.45;;
55065;SDS011;40964;42.114;24.220;2023-09-30T03:15:58;8.40;;;3.92;;
55065;SDS011;40964;42.114;24.220;2023-09-30T03:18:26;7.60;;;3.72;;
55065;SDS011;40964;42.114;24.220;2023-09-30T03:20:58;8.60;;;4.07;;
55065;SDS011;40964;42.114;24.220;2023-09-30T03:23:33;7.97;;;3.85;;
55065;SDS011;40964;42.114;24.220;2023-09-30T03:25:59;8.13;;;3.80;;
55065;SDS011;40964;42.114;24.220;2023-09-30T03:28:27;10.85;;;3.70;;
55065;SDS011;40964;42.114;24.220;2023-09-30T03:30:53;8.32;;;4.07;;
55065;SDS011;40964;42.114;24.220;2023-09-30T03:33:19;7.30;;;3.88;;
55065;SDS011;40964;42.114;24.220;2023-09-30T03:35:44;7.22;;;3.70;;
55065;SDS011;40964;42.114;24.220;2023-09-30T03:38:10;5.82;;;3.42;;
55065;SDS011;40964;42.114;24.220;2023-09-30T03:40:38;6.80;;;3.90;;
55065;SDS011;40964;42.114;24.220;2023-09-30T03:43:09;8.93;;;4.13;;
55065;SDS011;40964;42.114;24.220;2023-09-30T03:45:35;6.32;;;4.05;;
55065;SDS011;40964;42.114;24.220;2023-09-30T03:48:02;9.00;;;4.10;;
55065;SDS011;40964;42.114;24.220;2023-09-30T03:50:28;6.32;;;3.67;;
55065;SDS011;40964;42.114;24.220;2023-09-30T03:53:00;12.13;;;3.90;;
55065;SDS011;40964;42.114;24.220;2023-09-30T03:55:26;11.45;;;4.20;;
55065;SDS011;40964;42.114;24.220;2023-09-30T03:57:52;8.82;;;3.67;;
55065;SDS011;40964;42.114;24.220;2023-09-30T04:00:17;13.07;;;4.25;;
55065;SDS011;40964;42.114;24.220;2023-09-30T04:02:44;7.78;;;4.53;;
55065;SDS011;40964;42.114;24.220;2023-09-30T04:05:13;19.73;;;4.65;;
55065;SDS011;40964;42.114;24.220;2023-09-30T04:07:39;9.63;;;3.80;;
55065;SDS011;40964;42.114;24.220;2023-09-30T04:10:07;5.68;;;3.97;;
55065;SDS011;40964;42.114;24.220;2023-09-30T04:12:33;5.75;;;3.42;;
55065;SDS011;40964;42.114;24.220;2023-09-30T04:14:59;8.80;;;4.35;;
55065;SDS011;40964;42.114;24.220;2023-09-30T04:17:25;8.27;;;3.88;;
55065;SDS011;40964;42.114;24.220;2023-09-30T04:19:52;8.52;;;4.07;;
55065;SDS011;40964;42.114;24.220;2023-09-30T04:22:18;17.17;;;4.35;;
55065;SDS011;40964;42.114;24.220;2023-09-30T04:24:44;9.77;;;4.13;;
55065;SDS011;40964;42.114;24.220;2023-09-30T04:27:10;11.40;;;3.88;;
55065;SDS011;40964;42.114;24.220;2023-09-30T04:29:36;12.45;;;3.95;;
55065;SDS011;40964;42.114;24.220;2023-09-30T04:32:01;15.75;;;4.05;;
55065;SDS011;40964;42.114;24.220;2023-09-30T04:34:27;8.20;;;3.97;;
55065;SDS011;40964;42.114;24.220;2023-09-30T04:36:53;7.15;;;4.05;;
55065;SDS011;40964;42.114;24.220;2023-09-30T04:39:18;8.75;;;4.00;;
55065;SDS011;40964;42.114;24.220;2023-09-30T04:41:44;9.43;;;4.38;;
55065;SDS011;40964;42.114;24.220;2023-09-30T04:44:09;10.30;;;3.95;;
55065;SDS011;40964;42.114;24.220;2023-09-30T04:46:38;12.38;;;3.95;;
55065;SDS011;40964;42.114;24.220;2023-09-30T04:49:10;10.77;;;4.25;;
55065;SDS011;40964;42.114;24.220;2023-09-30T04:51:38;10.80;;;4.53;;
55065;SDS011;40964;42.114;24.220;2023-09-30T04:54:04;7.47;;;4.55;;
55065;SDS011;40964;42.114;24.220;2023-09-30T04:56:32;12.02;;;4.63;;
55065;SDS011;40964;42.114;24.220;2023-09-30T04:58:57;17.08;;;4.38;;
55065;SDS011;40964;42.114;24.220;2023-09-30T05:01:23;8.13;;;4.07;;
55065;SDS011;40964;42.114;24.220;2023-09-30T05:03:50;9.70;;;4.63;;
55065;SDS011;40964;42.114;24.220;2023-09-30T05:06:15;6.88;;;4.10;;
55065;SDS011;40964;42.114;24.220;2023-09-30T05:08:41;8.50;;;4.70;;
55065;SDS011;40964;42.114;24.220;2023-09-30T05:11:06;6.32;;;4.30;;
55065;SDS011;40964;42.114;24.220;2023-09-30T05:13:32;16.50;;;4.95;;
55065;SDS011;40964;42.114;24.220;2023-09-30T05:15:59;13.40;;;5.63;;
55065;SDS011;40964;42.114;24.220;2023-09-30T05:18:26;8.73;;;5.55;;
55065;SDS011;40964;42.114;24.220;2023-09-30T05:20:51;9.35;;;5.47;;
55065;SDS011;40964;42.114;24.220;2023-09-30T05:23:17;12.38;;;5.60;;
55065;SDS011;40964;42.114;24.220;2023-09-30T05:25:42;11.25;;;4.30;;
55065;SDS011;40964;42.114;24.220;2023-09-30T05:28:08;14.07;;;4.55;;
55065;SDS011;40964;42.114;24.220;2023-09-30T05:30:34;9.48;;;4.30;;
55065;SDS011;40964;42.114;24.220;2023-09-30T05:33:00;12.50;;;4.55;;
55065;SDS011;40964;42.114;24.220;2023-09-30T05:35:26;8.50;;;4.75;;
55065;SDS011;40964;42.114;24.220;2023-09-30T05:37:52;14.25;;;4.50;;
55065;SDS011;40964;42.114;24.220;2023-09-30T05:40:19;7.13;;;3.90;;
55065;SDS011;40964;42.114;24.220;2023-09-30T05:42:49;9.02;;;4.25;;
55065;SDS011;40964;42.114;24.220;2023-09-30T05:45:15;13.63;;;5.10;;
55065;SDS011;40964;42.114;24.220;2023-09-30T05:47:41;24.77;;;9.20;;
55065;SDS011;40964;42.114;24.220;2023-09-30T05:50:07;25.38;;;10.63;;
55065;SDS011;40964;42.114;24.220;2023-09-30T05:52:34;25.75;;;9.35;;
55065;SDS011;40964;42.114;24.220;2023-09-30T05:55:00;18.00;;;8.52;;
55065;SDS011;40964;42.114;24.220;2023-09-30T05:57:27;13.77;;;8.15;;
55065;SDS011;40964;42.114;24.220;2023-09-30T05:59:53;13.65;;;6.47;;
55065;SDS011;40964;42.114;24.220;2023-09-30T06:02:19;16.17;;;7.88;;
55065;SDS011;40964;42.114;24.220;2023-09-30T06:04:44;9.18;;;4.93;;
55065;SDS011;40964;42.114;24.220;2023-09-30T06:07:11;9.40;;;4.68;;
55065;SDS011;40964;42.114;24.220;2023-09-30T06:09:37;12.63;;;4.53;;
55065;SDS011;40964;42.114;24.220;2023-09-30T06:12:02;8.68;;;4.00;;
55065;SDS011;40964;42.114;24.220;2023-09-30T06:14:31;8.02;;;4.00;;
55065;SDS011;40964;42.114;24.220;2023-09-30T06:16:57;13.95;;;5.10;;
55065;SDS011;40964;42.114;24.220;2023-09-30T06:19:22;14.52;;;4.65;;
55065;SDS011;40964;42.114;24.220;2023-09-30T06:21:48;9.13;;;4.72;;
55065;SDS011;40964;42.114;24.220;2023-09-30T06:24:15;8.63;;;4.20;;
55065;SDS011;40964;42.114;24.220;2023-09-30T06:26:40;10.35;;;4.75;;
55065;SDS011;40964;42.114;24.220;2023-09-30T06:29:06;14.65;;;5.90;;
55065;SDS011;40964;42.114;24.220;2023-09-30T06:31:32;13.60;;;4.30;;
55065;SDS011;40964;42.114;24.220;2023-09-30T06:33:59;7.30;;;4.20;;
55065;SDS011;40964;42.114;24.220;2023-09-30T06:36:25;7.38;;;4.07;;
55065;SDS011;40964;42.114;24.220;2023-09-30T06:38:51;13.82;;;5.13;;
55065;SDS011;40964;42.114;24.220;2023-09-30T06:41:17;11.23;;;4.53;;
55065;SDS011;40964;42.114;24.220;2023-09-30T06:43:43;12.75;;;5.22;;
55065;SDS011;40964;42.114;24.220;2023-09-30T06:46:09;8.52;;;4.00;;
55065;SDS011;40964;42.114;24.220;2023-09-30T06:48:36;9.57;;;4.10;;
55065;SDS011;40964;42.114;24.220;2023-09-30T06:51:02;10.80;;;3.90;;
55065;SDS011;40964;42.114;24.220;2023-09-30T06:53:28;14.07;;;4.15;;
55065;SDS011;40964;42.114;24.220;2023-09-30T06:55:53;10.38;;;4.45;;
55065;SDS011;40964;42.114;24.220;2023-09-30T06:58:19;9.55;;;4.35;;
55065;SDS011;40964;42.114;24.220;2023-09-30T07:00:51;9.48;;;4.10;;
55065;SDS011;40964;42.114;24.220;2023-09-30T07:03:18;5.75;;;3.75;;
55065;SDS011;40964;42.114;24.220;2023-09-30T07:05:44;6.82;;;4.03;;
55065;SDS011;40964;42.114;24.220;2023-09-30T07:08:10;5.95;;;3.65;;
55065;SDS011;40964;42.114;24.220;2023-09-30T07:10:36;12.98;;;3.90;;
55065;SDS011;40964;42.114;24.220;2023-09-30T07:13:02;9.65;;;4.10;;
55065;SDS011;40964;42.114;24.220;2023-09-30T07:15:28;5.25;;;3.53;;
55065;SDS011;40964;42.114;24.220;2023-09-30T07:17:54;7.88;;;3.30;;
55065;SDS011;40964;42.114;24.220;2023-09-30T07:20:19;6.35;;;3.50;;
55065;SDS011;40964;42.114;24.220;2023-09-30T07:22:47;7.82;;;4.10;;
55065;SDS011;40964;42.114;24.220;2023-09-30T07:25:13;6.25;;;3.55;;
55065;SDS011;40964;42.114;24.220;2023-09-30T07:27:45;7.00;;;3.65;;
55065;SDS011;40964;42.114;24.220;2023-09-30T07:30:11;6.70;;;3.95;;
55065;SDS011;40964;42.114;24.220;2023-09-30T07:32:43;6.68;;;3.25;;
55065;SDS011;40964;42.114;24.220;2023-09-30T07:35:09;6.22;;;3.70;;
55065;SDS011;40964;42.114;24.220;2023-09-30T07:37:35;10.82;;;3.45;;
55065;SDS011;40964;42.114;24.220;2023-09-30T07:40:00;9.85;;;3.22;;
55065;SDS011;40964;42.114;24.220;2023-09-30T07:42:26;10.35;;;3.67;;
55065;SDS011;40964;42.114;24.220;2023-09-30T07:44:52;6.75;;;3.30;;
55065;SDS011;40964;42.114;24.220;2023-09-30T07:47:19;5.85;;;3.33;;
55065;SDS011;40964;42.114;24.220;2023-09-30T07:49:44;5.82;;;3.70;;
55065;SDS011;40964;42.114;24.220;2023-09-30T07:52:10;10.95;;;3.85;;
55065;SDS011;40964;42.114;24.220;2023-09-30T07:54:36;10.00;;;3.15;;
55065;SDS011;40964;42.114;24.220;2023-09-30T07:57:01;10.63;;;3.15;;
55065;SDS011;40964;42.114;24.220;2023-09-30T07:59:27;7.53;;;3.83;;
55065;SDS011;40964;42.114;24.220;2023-09-30T08:01:52;5.22;;;2.78;;
55065;SDS011;40964;42.114;24.220;2023-09-30T08:04:18;5.80;;;3.38;;
55065;SDS011;40964;42.114;24.220;2023-09-30T08:06:44;7.63;;;3.42;;
55065;SDS011;40964;42.114;24.220;2023-09-30T08:09:10;9.10;;;4.07;;
55065;SDS011;40964;42.114;24.220;2023-09-30T08:11:38;13.45;;;3.83;;
55065;SDS011;40964;42.114;24.220;2023-09-30T08:14:04;5.53;;;3.28;;
55065;SDS011;40964;42.114;24.220;2023-09-30T08:16:37;6.00;;;3.40;;
55065;SDS011;40964;42.114;24.220;2023-09-30T08:19:03;10.10;;;3.80;;
55065;SDS011;40964;42.114;24.220;2023-09-30T08:21:29;8.88;;;3.80;;
55065;SDS011;40964;42.114;24.220;2023-09-30T08:23:55;5.53;;;3.25;;
55065;SDS011;40964;42.114;24.220;2023-09-30T08:26:22;7.15;;;3.13;;
55065;SDS011;40964;42.114;24.220;2023-09-30T08:28:48;8.82;;;3.83;;
55065;SDS011;40964;42.114;24.220;2023-09-30T08:31:13;11.85;;;3.20;;
55065;SDS011;40964;42.114;24.220;2023-09-30T08:33:39;6.95;;;3.83;;
55065;SDS011;40964;42.114;24.220;2023-09-30T08:36:10;16.20;;;3.92;;
55065;SDS011;40964;42.114;24.220;2023-09-30T08:38:37;9.13;;;3.88;;
55065;SDS011;40964;42.114;24.220;2023-09-30T08:41:04;7.57;;;3.60;;
55065;SDS011;40964;42.114;24.220;2023-09-30T08:43:30;6.70;;;3.80;;
55065;SDS011;40964;42.114;24.220;2023-09-30T08:45:59;9.88;;;3.90;;
55065;SDS011;40964;42.114;24.220;2023-09-30T08:48:28;11.25;;;3.90;;
55065;SDS011;40964;42.114;24.220;2023-09-30T08:50:58;7.53;;;4.10;;
55065;SDS011;40964;42.114;24.220;2023-09-30T08:53:24;10.93;;;3.90;;
55065;SDS011;40964;42.114;24.220;2023-09-30T08:55:52;9.38;;;4.85;;
55065;SDS011;40964;42.114;24.220;2023-09-30T08:58:19;11.30;;;4.30;;
55065;SDS011;40964;42.114;24.220;2023-09-30T09:00:50;7.95;;;4.15;;
55065;SDS011;40964;42.114;24.220;2023-09-30T09:03:17;11.75;;;4.05;;
55065;SDS011;40964;42.114;24.220;2023-09-30T09:05:44;9.32;;;4.25;;
55065;SDS011;40964;42.114;24.220;2023-09-30T09:08:10;8.07;;;4.07;;
55065;SDS011;40964;42.114;24.220;2023-09-30T09:10:35;7.88;;;4.38;;
55065;SDS011;40964;42.114;24.220;2023-09-30T09:13:18;7.45;;;4.57;;
55065;SDS011;40964;42.114;24.220;2023-09-30T09:15:43;13.15;;;4.93;;
55065;SDS011;40964;42.114;24.220;2023-09-30T09:18:08;10.27;;;4.10;;
55065;SDS011;40964;42.114;24.220;2023-09-30T09:20:35;11.23;;;4.60;;
55065;SDS011;40964;42.114;24.220;2023-09-30T09:23:01;12.10;;;5.30;;
55065;SDS011;40964;42.114;24.220;2023-09-30T09:25:26;11.38;;;4.72;;
55065;SDS011;40964;42.114;24.220;2023-09-30T09:27:53;9.70;;;4.60;;
55065;SDS011;40964;42.114;24.220;2023-09-30T09:30:23;9.05;;;4.85;;
55065;SDS011;40964;42.114;24.220;2023-09-30T09:35:24;10.48;;;4.43;;
55065;SDS011;40964;42.114;24.220;2023-09-30T09:37:59;7.68;;;4.65;;
55065;SDS011;40964;42.114;24.220;2023-09-30T09:40:37;8.48;;;4.70;;
55065;SDS011;40964;42.114;24.220;2023-09-30T09:43:05;8.07;;;4.47;;
55065;SDS011;40964;42.114;24.220;2023-09-30T09:45:35;8.82;;;5.10;;
55065;SDS011;40964;42.114;24.220;2023-09-30T09:48:01;7.13;;;5.03;;
55065;SDS011;40964;42.114;24.220;2023-09-30T09:50:29;6.35;;;4.90;;
55065;SDS011;40964;42.114;24.220;2023-09-30T09:52:58;14.07;;;5.10;;
55065;SDS011;40964;42.114;24.220;2023-09-30T09:55:25;14.43;;;4.93;;
55065;SDS011;40964;42.114;24.220;2023-09-30T09:57:52;12.93;;;5.50;;
55065;SDS011;40964;42.114;24.220;2023-09-30T10:00:20;7.72;;;5.00;;
55065;SDS011;40964;42.114;24.220;2023-09-30T10:02:49;7.10;;;4.57;;
55065;SDS011;40964;42.114;24.220;2023-09-30T10:05:15;6.93;;;5.00;;
55065;SDS011;40964;42.114;24.220;2023-09-30T10:07:44;7.93;;;4.93;;
55065;SDS011;40964;42.114;24.220;2023-09-30T10:12:42;12.82;;;5.13;;
55065;SDS011;40964;42.114;24.220;2023-09-30T10:20:39;8.57;;;4.72;;
55065;SDS011;40964;42.114;24.220;2023-09-30T10:25:48;11.90;;;4.90;;
55065;SDS011;40964;42.114;24.220;2023-09-30T10:28:33;7.05;;;4.43;;
55065;SDS011;40964;42.114;24.220;2023-09-30T10:36:29;6.03;;;4.55;;
55065;SDS011;40964;42.114;24.220;2023-09-30T10:38:57;9.82;;;4.63;;
55065;SDS011;40964;42.114;24.220;2023-09-30T10:46:51;6.75;;;4.85;;
55065;SDS011;40964;42.114;24.220;2023-09-30T10:52:06;12.88;;;4.88;;
55065;SDS011;40964;42.114;24.220;2023-09-30T10:54:32;9.18;;;5.03;;
55065;SDS011;40964;42.114;24.220;2023-09-30T10:56:59;9.85;;;4.72;;
55065;SDS011;40964;42.114;24.220;2023-09-30T10:59:28;13.05;;;4.57;;
55065;SDS011;40964;42.114;24.220;2023-09-30T11:01:57;8.15;;;4.78;;
55065;SDS011;40964;42.114;24.220;2023-09-30T11:04:23;13.90;;;4.55;;
55065;SDS011;40964;42.114;24.220;2023-09-30T11:06:48;12.45;;;5.05;;
55065;SDS011;40964;42.114;24.220;2023-09-30T11:09:17;9.38;;;4.78;;
55065;SDS011;40964;42.114;24.220;2023-09-30T11:11:48;11.48;;;4.53;;
55065;SDS011;40964;42.114;24.220;2023-09-30T11:17:07;8.80;;;4.55;;
55065;SDS011;40964;42.114;24.220;2023-09-30T11:19:36;7.65;;;4.18;;
55065;SDS011;40964;42.114;24.220;2023-09-30T11:22:10;8.57;;;4.10;;
55065;SDS011;40964;42.114;24.220;2023-09-30T11:24:36;9.00;;;4.28;;
55065;SDS011;40964;42.114;24.220;2023-09-30T11:27:02;10.38;;;4.38;;
55065;SDS011;40964;42.114;24.220;2023-09-30T11:29:28;6.38;;;4.15;;
55065;SDS011;40964;42.114;24.220;2023-09-30T11:31:53;8.88;;;4.15;;
55065;SDS011;40964;42.114;24.220;2023-09-30T11:34:30;7.13;;;4.00;;
55065;SDS011;40964;42.114;24.220;2023-09-30T11:36:57;6.95;;;3.80;;
55065;SDS011;40964;42.114;24.220;2023-09-30T11:39:26;6.22;;;4.10;;
55065;SDS011;40964;42.114;24.220;2023-09-30T11:41:53;6.28;;;4.20;;
55065;SDS011;40964;42.114;24.220;2023-09-30T11:44:23;8.30;;;4.20;;
55065;SDS011;40964;42.114;24.220;2023-09-30T11:49:25;5.93;;;4.10;;
55065;SDS011;40964;42.114;24.220;2023-09-30T11:51:54;8.40;;;4.07;;
55065;SDS011;40964;42.114;24.220;2023-09-30T11:54:21;7.68;;;4.57;;
55065;SDS011;40964;42.114;24.220;2023-09-30T11:56:51;8.30;;;4.43;;
55065;SDS011;40964;42.114;24.220;2023-09-30T11:59:17;5.63;;;4.10;;
55065;SDS011;40964;42.114;24.220;2023-09-30T12:01:44;7.15;;;4.65;;
55065;SDS011;40964;42.114;24.220;2023-09-30T12:04:10;7.78;;;4.20;;
55065;SDS011;40964;42.114;24.220;2023-09-30T12:06:37;7.20;;;4.20;;
55065;SDS011;40964;42.114;24.220;2023-09-30T12:09:03;9.73;;;4.10;;
55065;SDS011;40964;42.114;24.220;2023-09-30T12:11:29;12.43;;;4.40;;
55065;SDS011;40964;42.114;24.220;2023-09-30T12:13:54;9.30;;;4.45;;
55065;SDS011;40964;42.114;24.220;2023-09-30T12:16:20;7.03;;;4.25;;
55065;SDS011;40964;42.114;24.220;2023-09-30T12:18:46;5.65;;;3.95;;
55065;SDS011;40964;42.114;24.220;2023-09-30T12:21:11;7.90;;;4.18;;
55065;SDS011;40964;42.114;24.220;2023-09-30T12:23:38;6.38;;;4.15;;
55065;SDS011;40964;42.114;24.220;2023-09-30T12:26:05;7.15;;;4.53;;
55065;SDS011;40964;42.114;24.220;2023-09-30T12:28:34;8.38;;;4.75;;
55065;SDS011;40964;42.114;24.220;2023-09-30T12:31:00;6.20;;;4.10;;
55065;SDS011;40964;42.114;24.220;2023-09-30T12:33:30;9.63;;;4.50;;
55065;SDS011;40964;42.114;24.220;2023-09-30T12:35:56;6.10;;;4.30;;
55065;SDS011;40964;42.114;24.220;2023-09-30T12:38:23;10.07;;;5.00;;
55065;SDS011;40964;42.114;24.220;2023-09-30T12:40:53;5.80;;;4.28;;
55065;SDS011;40964;42.114;24.220;2023-09-30T12:43:19;8.68;;;4.82;;
55065;SDS011;40964;42.114;24.220;2023-09-30T12:45:45;13.60;;;5.63;;
55065;SDS011;40964;42.114;24.220;2023-09-30T12:48:12;11.30;;;4.53;;
55065;SDS011;40964;42.114;24.220;2023-09-30T12:50:38;7.10;;;4.63;;
55065;SDS011;40964;42.114;24.220;2023-09-30T12:53:03;8.63;;;4.43;;
55065;SDS011;40964;42.114;24.220;2023-09-30T12:55:29;10.30;;;5.00;;
55065;SDS011;40964;42.114;24.220;2023-09-30T12:57:54;7.30;;;4.03;;
55065;SDS011;40964;42.114;24.220;2023-09-30T13:00:20;6.95;;;4.28;;
55065;SDS011;40964;42.114;24.220;2023-09-30T13:02:47;10.35;;;4.60;;
55065;SDS011;40964;42.114;24.220;2023-09-30T13:05:13;9.70;;;4.68;;
55065;SDS011;40964;42.114;24.220;2023-09-30T13:07:39;7.45;;;4.07;;
55065;SDS011;40964;42.114;24.220;2023-09-30T13:10:05;9.50;;;4.65;;
55065;SDS011;40964;42.114;24.220;2023-09-30T13:12:32;17.10;;;4.30;;
55065;SDS011;40964;42.114;24.220;2023-09-30T13:14:58;6.60;;;4.05;;
55065;SDS011;40964;42.114;24.220;2023-09-30T13:17:24;7.03;;;4.10;;
55065;SDS011;40964;42.114;24.220;2023-09-30T13:19:50;6.95;;;4.25;;
55065;SDS011;40964;42.114;24.220;2023-09-30T13:22:16;12.07;;;4.03;;
55065;SDS011;40964;42.114;24.220;2023-09-30T13:24:42;5.43;;;4.22;;
55065;SDS011;40964;42.114;24.220;2023-09-30T13:27:08;7.75;;;4.10;;
55065;SDS011;40964;42.114;24.220;2023-09-30T13:29:34;7.35;;;3.63;;
55065;SDS011;40964;42.114;24.220;2023-09-30T13:31:59;8.63;;;4.28;;
55065;SDS011;40964;42.114;24.220;2023-09-30T13:34:25;10.27;;;4.00;;
55065;SDS011;40964;42.114;24.220;2023-09-30T13:36:50;6.00;;;4.90;;
55065;SDS011;40964;42.114;24.220;2023-09-30T13:39:15;8.40;;;5.53;;
55065;SDS011;40964;42.114;24.220;2023-09-30T13:41:43;14.05;;;6.70;;
55065;SDS011;40964;42.114;24.220;2023-09-30T13:44:09;8.18;;;6.45;;
55065;SDS011;40964;42.114;24.220;2023-09-30T13:46:35;9.55;;;5.45;;
55065;SDS011;40964;42.114;24.220;2023-09-30T13:49:01;6.82;;;4.00;;
55065;SDS011;40964;42.114;24.220;2023-09-30T13:51:26;8.95;;;4.18;;
55065;SDS011;40964;42.114;24.220;2023-09-30T13:53:52;7.68;;;4.43;;
55065;SDS011;40964;42.114;24.220;2023-09-30T13:56:20;8.18;;;4.65;;
55065;SDS011;40964;42.114;24.220;2023-09-30T13:58:46;11.60;;;4.10;;
55065;SDS011;40964;42.114;24.220;2023-09-30T14:01:14;5.47;;;3.70;;
55065;SDS011;40964;42.114;24.220;2023-09-30T14:03:40;8.43;;;4.65;;
55065;SDS011;40964;42.114;24.220;2023-09-30T14:06:10;11.70;;;4.40;;
55065;SDS011;40964;42.114;24.220;2023-09-30T14:08:39;6.82;;;4.15;;
55065;SDS011;40964;42.114;24.220;2023-09-30T14:11:08;10.95;;;6.10;;
55065;SDS011;40964;42.114;24.220;2023-09-30T14:13:33;16.95;;;4.47;;
55065;SDS011;40964;42.114;24.220;2023-09-30T14:15:59;8.02;;;3.90;;
55065;SDS011;40964;42.114;24.220;2023-09-30T14:18:24;8.60;;;4.25;;
55065;SDS011;40964;42.114;24.220;2023-09-30T14:20:50;6.18;;;3.70;;
55065;SDS011;40964;42.114;24.220;2023-09-30T14:23:15;9.88;;;4.05;;
55065;SDS011;40964;42.114;24.220;2023-09-30T14:25:41;6.20;;;3.78;;
55065;SDS011;40964;42.114;24.220;2023-09-30T14:28:06;10.25;;;4.10;;
55065;SDS011;40964;42.114;24.220;2023-09-30T14:30:32;5.30;;;3.53;;
55065;SDS011;40964;42.114;24.220;2023-09-30T14:32:58;7.80;;;4.47;;
55065;SDS011;40964;42.114;24.220;2023-09-30T14:35:24;6.88;;;3.40;;
55065;SDS011;40964;42.114;24.220;2023-09-30T14:37:49;7.32;;;4.18;;
55065;SDS011;40964;42.114;24.220;2023-09-30T14:40:15;5.45;;;4.00;;
55065;SDS011;40964;42.114;24.220;2023-09-30T14:42:41;6.70;;;3.97;;
55065;SDS011;40964;42.114;24.220;2023-09-30T14:45:07;9.32;;;5.60;;
55065;SDS011;40964;42.114;24.220;2023-09-30T14:47:33;13.65;;;5.20;;
55065;SDS011;40964;42.114;24.220;2023-09-30T14:49:59;6.28;;;4.25;;
55065;SDS011;40964;42.114;24.220;2023-09-30T14:52:27;8.48;;;5.30;;
55065;SDS011;40964;42.114;24.220;2023-09-30T14:54:52;8.00;;;3.88;;
55065;SDS011;40964;42.114;24.220;2023-09-30T14:57:18;14.18;;;4.47;;
55065;SDS011;40964;42.114;24.220;2023-09-30T14:59:45;5.38;;;3.63;;
55065;SDS011;40964;42.114;24.220;2023-09-30T15:02:11;6.32;;;3.97;;
55065;SDS011;40964;42.114;24.220;2023-09-30T15:04:36;7.03;;;3.88;;
55065;SDS011;40964;42.114;24.220;2023-09-30T15:07:02;10.05;;;4.07;;